Time;durP1;ratioP1;P1;durP2;ratioP2;P2;SDS_P1;SDS_P2;PMS_P1;PMS_P2;Temp;Humidity;BMP_temperature;BMP_pressure;BME280_temperature;BME280_humidity;BME280_pressure;Samples;Min_cycle;Max_cycle;Signal;HPM_P1;HPM_P2
2020/12/12 00:00:19;;;;;;;13.07;8.75;;;8.30;78.40;;;;;;5008706;28;20129;-44
2020/12/12 00:03:05;;;;;;;10.82;7.53;;;8.30;78.40;;;;;;4999703;28;20509;-44
2020/12/12 00:05:31;;;;;;;11.38;7.85;;;8.30;78.40;;;;;;5017788;28;20057;-49
2020/12/12 00:08:16;;;;;;;12.02;8.50;;;8.30;78.40;;;;;;5004502;28;20050;-44
2020/12/12 00:10:42;;;;;;;11.55;7.95;;;8.30;78.40;;;;;;5022013;28;20508;-49
2020/12/12 00:13:08;;;;;;;11.80;7.75;;;8.30;78.40;;;;;;5013966;28;20133;-44
2020/12/12 00:15:53;;;;;;;10.30;7.22;;;8.30;78.50;;;;;;5003153;28;20486;-44
2020/12/12 00:18:19;;;;;;;10.80;7.95;;;8.30;78.40;;;;;;5032232;28;20077;-43
2020/12/12 00:20:45;;;;;;;11.40;7.47;;;8.30;78.40;;;;;;5033469;28;20509;-45
2020/12/12 00:23:32;;;;;;;11.63;7.63;;;8.30;78.50;;;;;;4999532;28;20108;-45
2020/12/12 00:25:58;;;;;;;14.75;8.98;;;8.30;78.40;;;;;;5013999;28;20057;-47
2020/12/12 00:28:24;;;;;;;11.13;7.63;;;8.30;78.50;;;;;;5018266;28;20053;-49
2020/12/12 00:30:49;;;;;;;10.85;8.10;;;8.30;78.50;;;;;;5028533;28;20045;-44
2020/12/12 00:33:15;;;;;;;10.75;7.55;;;8.30;78.50;;;;;;5013682;28;20132;-43
2020/12/12 00:35:41;;;;;;;12.02;8.00;;;8.30;78.50;;;;;;5029059;28;20060;-42
2020/12/12 00:38:26;;;;;;;12.80;7.50;;;8.30;78.50;;;;;;5007835;28;20050;-44
2020/12/12 00:40:58;;;;;;;10.82;7.03;;;8.30;78.50;;;;;;5033593;28;20053;-45
2020/12/12 00:43:24;;;;;;;11.88;7.05;;;8.30;78.50;;;;;;5027262;28;20050;-44
2020/12/12 00:45:51;;;;;;;12.27;7.43;;;8.30;79.10;;;;;;5028580;28;20454;-41
2020/12/12 00:48:17;;;;;;;12.20;7.28;;;8.30;78.50;;;;;;5013379;28;20061;-46
2020/12/12 00:50:46;;;;;;;10.52;7.63;;;8.30;78.50;;;;;;5014478;28;20479;-44
2020/12/12 00:53:12;;;;;;;10.98;7.60;;;8.30;78.50;;;;;;5015193;28;20057;-43
2020/12/12 00:55:38;;;;;;;13.05;7.82;;;8.30;78.50;;;;;;5033283;28;20501;-44
2020/12/12 00:58:23;;;;;;;11.90;7.35;;;8.30;78.50;;;;;;5014822;28;20410;-42
2020/12/12 01:01:10;;;;;;;12.27;7.65;;;8.30;78.50;;;;;;4999588;28;20050;-42
2020/12/12 01:03:56;;;;;;;11.10;6.88;;;8.30;78.50;;;;;;5006469;28;20073;-44
2020/12/12 01:06:41;;;;;;;11.48;7.78;;;8.30;78.50;;;;;;5018533;28;20128;-45
2020/12/12 01:09:07;;;;;;;11.07;7.65;;;8.30;78.50;;;;;;5023363;28;20066;-47
2020/12/12 01:11:55;;;;;;;11.93;7.53;;;8.30;78.50;;;;;;5005231;28;20061;-45
2020/12/12 01:14:21;;;;;;;11.00;7.57;;;8.30;78.40;;;;;;5019402;28;20057;-45
2020/12/12 01:16:46;;;;;;;11.88;7.80;;;8.30;78.50;;;;;;5032736;28;20052;-42
2020/12/12 01:19:32;;;;;;;11.48;7.05;;;8.30;78.50;;;;;;5017689;28;20351;-43
2020/12/12 01:21:57;;;;;;;10.90;7.93;;;8.30;78.50;;;;;;5030992;28;20548;-42
2020/12/12 01:24:23;;;;;;;10.60;7.43;;;8.30;78.50;;;;;;5013576;28;20591;-44
2020/12/12 01:26:49;;;;;;;10.60;7.78;;;8.30;78.50;;;;;;5027315;28;20053;-45
2020/12/12 01:29:14;;;;;;;11.43;7.50;;;8.30;78.50;;;;;;5018043;28;20069;-45
2020/12/12 01:32:00;;;;;;;12.45;8.50;;;8.30;78.50;;;;;;5009191;28;20049;-44
2020/12/12 01:34:26;;;;;;;12.82;7.80;;;8.30;78.50;;;;;;5020404;28;20053;-44
2020/12/12 01:36:52;;;;;;;10.50;6.95;;;8.30;78.50;;;;;;5012928;28;20061;-45
2020/12/12 01:39:18;;;;;;;10.20;7.93;;;8.30;78.50;;;;;;5013243;28;20057;-42
2020/12/12 01:41:43;;;;;;;11.80;8.13;;;8.30;78.50;;;;;;5008310;28;20046;-44
2020/12/12 01:44:09;;;;;;;11.20;7.40;;;8.30;78.50;;;;;;5030597;28;20050;-44
2020/12/12 01:46:35;;;;;;;12.10;7.55;;;8.30;78.50;;;;;;5012981;28;20486;-45
2020/12/12 01:49:01;;;;;;;11.18;7.85;;;8.30;78.50;;;;;;5012949;28;20415;-44
2020/12/12 01:51:48;;;;;;;11.48;7.60;;;8.30;78.50;;;;;;5004915;28;20488;-42
2020/12/12 01:54:34;;;;;;;10.55;7.15;;;8.30;78.50;;;;;;4998152;28;20050;-43
2020/12/12 01:57:06;;;;;;;11.65;7.75;;;8.30;78.50;;;;;;5014279;28;20475;-45
2020/12/12 01:59:32;;;;;;;11.35;7.38;;;8.30;78.50;;;;;;5032530;28;20572;-46
2020/12/12 02:02:00;;;;;;;10.98;7.57;;;8.30;78.50;;;;;;5026186;28;20038;-43
2020/12/12 02:04:29;;;;;;;13.43;7.80;;;8.30;78.50;;;;;;5030838;28;20045;-42
2020/12/12 02:06:55;;;;;;;10.57;7.53;;;8.30;78.50;;;;;;5032292;28;20089;-50
2020/12/12 02:09:42;;;;;;;10.32;7.15;;;8.30;78.50;;;;;;5017843;28;20405;-49
2020/12/12 02:12:08;;;;;;;11.18;7.88;;;8.30;78.60;;;;;;5027996;28;20042;-44
2020/12/12 02:14:38;;;;;;;12.00;8.20;;;8.30;78.50;;;;;;5032090;28;20236;-48
2020/12/12 02:17:04;;;;;;;9.85;7.22;;;8.30;78.50;;;;;;5032144;28;20559;-48
2020/12/12 02:19:30;;;;;;;12.32;8.40;;;8.30;78.50;;;;;;5013904;28;20409;-46
2020/12/12 02:21:59;;;;;;;9.95;7.72;;;8.30;78.50;;;;;;5032384;28;20125;-45
2020/12/12 02:24:29;;;;;;;11.95;7.88;;;8.30;78.50;;;;;;5015303;28;20065;-44
2020/12/12 02:26:59;;;;;;;13.20;8.27;;;8.30;78.50;;;;;;5013555;28;20042;-42
2020/12/12 02:29:48;;;;;;;11.20;7.80;;;8.30;78.50;;;;;;4997981;28;20052;-44
2020/12/12 02:32:14;;;;;;;10.73;7.05;;;8.30;78.50;;;;;;5015367;28;20042;-45
2020/12/12 02:34:40;;;;;;;11.27;7.60;;;8.30;78.50;;;;;;5016601;28;20041;-51
2020/12/12 02:37:06;;;;;;;11.30;7.45;;;8.30;78.50;;;;;;5015859;28;20046;-42
2020/12/12 02:39:51;;;;;;;9.90;7.25;;;8.30;78.50;;;;;;5001418;28;20442;-45
2020/12/12 02:42:17;;;;;;;11.82;8.35;;;8.30;78.50;;;;;;5016168;28;20054;-42
2020/12/12 02:44:43;;;;;;;11.07;7.88;;;8.30;78.50;;;;;;5019897;28;20041;-42
2020/12/12 02:47:08;;;;;;;10.25;8.55;;;8.30;78.50;;;;;;5017023;28;20116;-46
2020/12/12 02:50:07;;;;;;;10.35;7.47;;;8.30;78.50;;;;;;5016399;28;20045;-44
2020/12/12 02:52:33;;;;;;;9.75;7.13;;;8.30;78.50;;;;;;5035258;28;20057;-46
2020/12/12 02:54:59;;;;;;;10.02;7.13;;;8.30;78.50;;;;;;5018749;28;20568;-45
2020/12/12 02:57:44;;;;;;;10.88;8.00;;;8.30;78.50;;;;;;5019449;28;20567;-45
2020/12/12 03:00:15;;;;;;;13.35;8.82;;;8.30;78.50;;;;;;5035376;28;20081;-51
2020/12/12 03:02:41;;;;;;;12.35;8.23;;;8.30;78.50;;;;;;5035152;28;20069;-45
2020/12/12 03:05:07;;;;;;;9.98;7.47;;;8.30;78.50;;;;;;5034439;28;21052;-43
2020/12/12 03:07:34;;;;;;;12.25;8.40;;;8.30;78.50;;;;;;5032311;28;20053;-46
2020/12/12 03:10:00;;;;;;;12.75;8.25;;;8.30;78.50;;;;;;5015515;28;20073;-45
2020/12/12 03:12:45;;;;;;;10.75;7.43;;;8.30;78.50;;;;;;5000725;28;20042;-46
2020/12/12 03:15:12;;;;;;;11.75;7.88;;;8.30;78.50;;;;;;5023998;28;20046;-43
2020/12/12 03:17:38;;;;;;;10.95;7.63;;;8.30;78.50;;;;;;5016114;28;20068;-49
2020/12/12 03:20:05;;;;;;;12.20;7.75;;;8.30;78.50;;;;;;5014985;28;20049;-45
2020/12/12 03:22:32;;;;;;;11.38;7.60;;;8.30;78.50;;;;;;5023636;28;20485;-45
2020/12/12 03:24:57;;;;;;;11.82;8.13;;;8.30;78.50;;;;;;5018494;28;20057;-48
2020/12/12 03:27:23;;;;;;;10.43;7.75;;;8.30;78.50;;;;;;5015911;28;20045;-46
2020/12/12 03:29:49;;;;;;;12.23;8.52;;;8.30;78.50;;;;;;5015267;28;20046;-46
2020/12/12 03:32:34;;;;;;;11.98;8.05;;;8.30;78.50;;;;;;5001656;28;20054;-46
2020/12/12 03:35:00;;;;;;;11.32;8.23;;;8.30;78.50;;;;;;5014869;28;20050;-47
2020/12/12 03:37:26;;;;;;;11.35;8.15;;;8.30;78.50;;;;;;5014925;28;20046;-48
2020/12/12 03:39:52;;;;;;;11.43;7.75;;;8.30;78.50;;;;;;5016014;28;20120;-40
2020/12/12 03:42:17;;;;;;;12.82;8.80;;;8.30;78.50;;;;;;5034325;28;20539;-43
2020/12/12 03:44:43;;;;;;;13.15;8.38;;;8.30;78.50;;;;;;5019545;28;20065;-43
2020/12/12 03:47:09;;;;;;;11.38;7.60;;;8.30;78.50;;;;;;5018166;28;20099;-47
2020/12/12 03:49:35;;;;;;;11.95;8.25;;;8.30;78.50;;;;;;5032722;28;20053;-43
2020/12/12 03:52:20;;;;;;;11.45;8.15;;;8.30;78.50;;;;;;5000229;28;20041;-44
2020/12/12 03:54:46;;;;;;;11.60;7.97;;;8.30;78.50;;;;;;5014520;28;20124;-44
2020/12/12 03:57:12;;;;;;;10.10;7.05;;;8.30;78.50;;;;;;5032900;28;20382;-45
2020/12/12 03:59:38;;;;;;;11.02;8.02;;;8.30;78.50;;;;;;5021349;28;20053;-45
2020/12/12 04:02:24;;;;;;;10.88;7.40;;;8.30;78.50;;;;;;5000287;28;20053;-44
2020/12/12 04:04:49;;;;;;;11.75;8.07;;;8.30;78.50;;;;;;5014717;28;20108;-43
2020/12/12 04:07:35;;;;;;;10.02;7.68;;;8.30;78.60;;;;;;4999894;28;20053;-44
2020/12/12 04:10:21;;;;;;;12.07;7.90;;;8.30;78.50;;;;;;5010467;28;20564;-48
2020/12/12 04:12:46;;;;;;;10.98;7.65;;;8.30;78.60;;;;;;5033991;28;20049;-45
2020/12/12 04:15:12;;;;;;;11.25;8.20;;;8.30;78.50;;;;;;5015911;28;20490;-45
2020/12/12 04:17:38;;;;;;;11.40;7.93;;;8.30;78.50;;;;;;5014137;28;20046;-45
2020/12/12 04:20:04;;;;;;;9.90;7.65;;;8.30;78.50;;;;;;5014604;28;20049;-45
2020/12/12 04:22:30;;;;;;;10.98;7.63;;;8.30;78.60;;;;;;5014029;28;20454;-45
2020/12/12 04:25:15;;;;;;;12.25;8.02;;;8.30;78.60;;;;;;4999527;28;20136;-45
2020/12/12 04:27:42;;;;;;;11.73;7.38;;;8.30;78.60;;;;;;5014122;28;20137;-43
2020/12/12 04:30:07;;;;;;;11.23;7.95;;;8.30;78.60;;;;;;5013777;28;20053;-42
2020/12/12 04:32:33;;;;;;;9.43;7.95;;;8.20;78.50;;;;;;5017689;28;20410;-42
2020/12/12 04:34:59;;;;;;;12.02;7.47;;;8.30;78.60;;;;;;5013931;28;20487;-47
2020/12/12 04:37:24;;;;;;;12.73;7.95;;;8.30;78.60;;;;;;5015195;28;20491;-43
2020/12/12 04:39:50;;;;;;;12.00;8.63;;;8.30;78.50;;;;;;5033706;28;20100;-44
2020/12/12 04:42:37;;;;;;;12.63;8.43;;;8.30;78.60;;;;;;5016839;28;20045;-49
2020/12/12 04:45:04;;;;;;;11.18;7.85;;;8.20;78.50;;;;;;5032662;28;20057;-43
2020/12/12 04:47:31;;;;;;;11.25;8.10;;;8.30;78.60;;;;;;5033304;28;20406;-45
2020/12/12 04:50:18;;;;;;;11.45;7.75;;;8.30;78.60;;;;;;5002515;28;20050;-45
2020/12/12 04:52:44;;;;;;;11.13;8.55;;;8.30;78.60;;;;;;5031456;28;20057;-45
2020/12/12 04:55:30;;;;;;;11.40;7.63;;;8.30;78.60;;;;;;5017758;28;20049;-45
2020/12/12 04:57:57;;;;;;;10.55;7.80;;;8.30;78.60;;;;;;5031210;28;20400;-44
2020/12/12 05:00:23;;;;;;;11.68;8.73;;;8.30;78.60;;;;;;5013431;28;20050;-44
2020/12/12 05:02:49;;;;;;;10.80;7.53;;;8.30;78.60;;;;;;5014557;28;20498;-43
2020/12/12 05:05:15;;;;;;;10.23;7.53;;;8.30;78.60;;;;;;5013433;28;20096;-47
2020/12/12 05:07:40;;;;;;;10.50;7.45;;;8.30;78.60;;;;;;5015921;28;20413;-47
2020/12/12 05:10:06;;;;;;;12.57;8.65;;;8.30;78.60;;;;;;5033083;28;20100;-47
2020/12/12 05:12:52;;;;;;;;;;;8.30;78.60;;;;;;5017971;28;20045;-43
2020/12/12 05:15:18;;;;;;;;;;;8.30;78.60;;;;;;5031546;28;19921;-43
2020/12/12 05:17:46;;;;;;;10.67;7.23;;;8.20;78.50;;;;;;5033152;28;19929;-48
2020/12/12 05:20:14;;;;;;;11.82;7.95;;;8.30;78.60;;;;;;5013948;28;20412;-45
2020/12/12 05:22:41;;;;;;;10.68;8.10;;;8.20;78.50;;;;;;5013090;28;20041;-47
2020/12/12 05:25:27;;;;;;;11.85;7.60;;;8.20;78.50;;;;;;5013365;28;20143;-51
2020/12/12 05:27:54;;;;;;;10.55;8.15;;;8.20;78.50;;;;;;5032640;28;20065;-43
2020/12/12 05:30:20;;;;;;;12.23;8.32;;;8.30;78.60;;;;;;5030835;28;20045;-45
2020/12/12 05:32:48;;;;;;;11.88;7.95;;;8.30;78.60;;;;;;5032926;28;20077;-46
2020/12/12 05:35:33;;;;;;;10.38;7.15;;;8.30;78.60;;;;;;5009465;28;20418;-44
2020/12/12 05:38:20;;;;;;;11.57;8.07;;;8.20;78.50;;;;;;5017483;28;20049;-47
2020/12/12 05:40:52;;;;;;;12.20;8.80;;;8.20;78.50;;;;;;5016897;28;20491;-50
2020/12/12 05:43:37;;;;;;;11.15;8.00;;;8.30;78.60;;;;;;4998754;28;20081;-48
2020/12/12 05:46:03;;;;;;;10.52;6.95;;;8.30;78.60;;;;;;5014073;28;20135;-45
2020/12/12 05:48:50;;;;;;;;;;;8.30;78.60;;;;;;4998973;28;20103;-45
2020/12/12 05:51:17;;;;;;;12.15;7.90;;;8.30;78.60;;;;;;5012924;28;19929;-51
2020/12/12 05:53:44;;;;;;;10.20;7.72;;;8.20;78.60;;;;;;5027551;28;20064;-43
2020/12/12 05:56:31;;;;;;;10.45;7.65;;;8.20;79.20;;;;;;5015932;28;20073;-46
2020/12/12 05:58:57;;;;;;;11.02;7.75;;;8.30;78.60;;;;;;5027471;28;20052;-48
2020/12/12 06:01:30;;;;;;;10.80;7.95;;;8.30;78.60;;;;;;5012649;28;20136;-46
2020/12/12 06:04:22;;;;;;;9.38;7.10;;;8.30;78.60;;;;;;5008636;28;20069;-43
2020/12/12 06:06:48;;;;;;;10.90;7.47;;;8.30;78.60;;;;;;5033750;28;20056;-47
2020/12/12 06:09:15;;;;;;;10.05;7.43;;;8.30;78.60;;;;;;5035941;28;20054;-44
2020/12/12 06:11:43;;;;;;;11.27;7.57;;;8.20;78.60;;;;;;5035953;28;20049;-42
2020/12/12 06:14:09;;;;;;;10.38;8.02;;;8.20;78.60;;;;;;5032498;28;20053;-41
2020/12/12 06:16:36;;;;;;;11.35;7.45;;;8.30;78.60;;;;;;5034527;28;20048;-46
2020/12/12 06:19:06;;;;;;;10.23;7.50;;;8.30;78.60;;;;;;5027553;28;20072;-46
2020/12/12 06:21:33;;;;;;;9.70;7.10;;;8.30;78.60;;;;;;5016123;28;20053;-45
2020/12/12 06:24:00;;;;;;;10.50;7.22;;;8.30;78.60;;;;;;5016374;28;20046;-47
2020/12/12 06:26:40;;;;;;;9.93;7.63;;;8.30;78.60;;;;;;5017036;28;20052;-45
2020/12/12 06:29:29;;;;;;;11.73;7.80;;;8.30;78.60;;;;;;5013266;28;20077;-48
2020/12/12 06:31:55;;;;;;;8.95;6.65;;;8.30;78.60;;;;;;5036017;28;20057;-46
2020/12/12 06:34:43;;;;;;;11.50;7.63;;;8.30;78.60;;;;;;5007405;28;20141;-44
2020/12/12 06:37:34;;;;;;;10.07;7.20;;;8.30;78.60;;;;;;5019399;28;20052;-48
2020/12/12 06:40:03;;;;;;;13.13;8.55;;;8.30;78.60;;;;;;5035585;28;20115;-42
2020/12/12 06:42:31;;;;;;;9.45;7.60;;;8.30;78.60;;;;;;5035362;28;20088;-45
2020/12/12 06:44:58;;;;;;;12.05;8.60;;;8.30;78.60;;;;;;5035025;28;20069;-42
2020/12/12 06:47:45;;;;;;;10.98;7.05;;;8.30;78.60;;;;;;5033118;28;20100;-47
2020/12/12 06:50:36;;;;;;;10.57;8.00;;;8.30;78.60;;;;;;5020938;28;20072;-44
2020/12/12 06:53:19;;;;;;;13.23;9.02;;;8.20;78.50;;;;;;5028453;28;20057;-44
2020/12/12 06:56:05;;;;;;;12.82;7.47;;;8.30;78.60;;;;;;5015454;28;20100;-45
2020/12/12 06:58:30;;;;;;;11.48;7.65;;;8.30;78.60;;;;;;5016840;28;20107;-43
2020/12/12 07:00:56;;;;;;;10.98;7.43;;;8.30;78.60;;;;;;5015773;28;20058;-46
2020/12/12 07:03:22;;;;;;;12.07;8.15;;;8.30;78.60;;;;;;5018570;28;20076;-47
2020/12/12 07:05:48;;;;;;;11.23;8.05;;;8.30;78.60;;;;;;5035191;28;20057;-44
2020/12/12 07:08:34;;;;;;;;;;;8.30;78.60;;;;;;5008077;28;20116;-43
2020/12/12 07:11:02;;;;;;;12.15;8.27;;;8.20;78.60;;;;;;5035234;28;19983;-40
2020/12/12 07:13:28;;;;;;;12.30;7.95;;;8.20;78.50;;;;;;5034803;28;20053;-40
2020/12/12 07:15:54;;;;;;;10.35;7.22;;;8.30;78.60;;;;;;5035239;28;20060;-46
2020/12/12 07:18:22;;;;;;;12.95;8.13;;;8.30;78.60;;;;;;5034314;28;20077;-42
2020/12/12 07:21:10;;;;;;;10.25;7.40;;;8.30;78.60;;;;;;5020282;28;20140;-42
2020/12/12 07:23:38;;;;;;;11.18;8.02;;;8.30;78.60;;;;;;5035213;28;20049;-43
2020/12/12 07:26:05;;;;;;;11.95;7.68;;;8.30;78.60;;;;;;5034492;28;20095;-40
2020/12/12 07:28:31;;;;;;;11.50;8.13;;;8.30;78.60;;;;;;5035053;28;20041;-44
2020/12/12 07:30:56;;;;;;;11.48;7.85;;;8.30;78.60;;;;;;5035014;28;20474;-46
2020/12/12 07:33:22;;;;;;;12.48;8.88;;;8.30;78.60;;;;;;5034436;28;20065;-47
2020/12/12 07:35:48;;;;;;;11.00;7.53;;;8.20;78.50;;;;;;5034463;28;20069;-40
2020/12/12 07:38:13;;;;;;;11.07;7.50;;;8.30;78.60;;;;;;5034744;28;20049;-44
2020/12/12 07:40:39;;;;;;;12.00;7.88;;;8.20;78.50;;;;;;5034466;28;20060;-39
2020/12/12 07:43:25;;;;;;;11.43;8.15;;;8.30;78.60;;;;;;5019205;28;20049;-45
2020/12/12 07:46:12;;;;;;;10.10;7.55;;;8.30;78.60;;;;;;5019266;28;20048;-38
2020/12/12 07:49:01;;;;;;;12.68;7.90;;;8.30;78.60;;;;;;5018743;28;20045;-45
2020/12/12 07:51:26;;;;;;;10.88;7.72;;;8.30;78.60;;;;;;5033744;28;20060;-38
2020/12/12 07:53:53;;;;;;;12.30;7.53;;;8.30;78.60;;;;;;5033391;28;20057;-38
2020/12/12 07:56:21;;;;;;;12.30;8.68;;;8.30;78.60;;;;;;5033223;28;20049;-43
2020/12/12 07:59:08;;;;;;;10.98;8.13;;;8.30;78.60;;;;;;5018474;28;20053;-43
2020/12/12 08:01:35;;;;;;;10.68;7.97;;;8.30;78.60;;;;;;5032834;28;20052;-42
2020/12/12 08:04:21;;;;;;;12.15;8.18;;;8.20;78.50;;;;;;5019067;28;20108;-44
2020/12/12 08:06:47;;;;;;;11.98;8.18;;;8.30;78.60;;;;;;5034011;28;20045;-43
2020/12/12 08:09:21;;;;;;;21.80;14.48;;;8.30;78.60;;;;;;5033997;28;20421;-46
2020/12/12 08:12:07;;;;;;;20.17;12.20;;;8.30;78.00;;;;;;5018944;28;20465;-48
2020/12/12 08:14:43;;;;;;;17.00;10.93;;;8.20;78.20;;;;;;5033471;28;20057;-46
2020/12/12 08:17:10;;;;;;;20.10;12.27;;;8.10;78.20;;;;;;5033757;28;20041;-48
2020/12/12 08:19:45;;;;;;;18.33;11.95;;;8.10;78.30;;;;;;5033945;28;20046;-48
2020/12/12 08:22:16;;;;;;;18.90;11.63;;;8.10;78.30;;;;;;5033772;28;20050;-47
2020/12/12 08:24:44;;;;;;;18.17;10.50;;;8.10;78.30;;;;;;5033932;28;20045;-48
2020/12/12 08:27:14;;;;;;;18.80;11.88;;;8.20;78.40;;;;;;5033448;28;20556;-50
2020/12/12 08:29:42;;;;;;;17.33;11.32;;;8.20;78.40;;;;;;5032819;28;20052;-47
2020/12/12 08:32:37;;;;;;;18.08;11.07;;;8.20;78.40;;;;;;5018832;28;20446;-48
2020/12/12 08:35:11;;;;;;;15.60;11.30;;;8.10;78.30;;;;;;5033713;28;20060;-46
2020/12/12 08:37:36;;;;;;;18.58;11.13;;;8.20;78.40;;;;;;5033815;28;20049;-48
2020/12/12 08:40:11;;;;;;;18.05;11.98;;;8.20;78.40;;;;;;5033709;28;20071;-48
2020/12/12 08:43:08;;;;;;;18.35;12.13;;;8.20;78.40;;;;;;5018629;28;20045;-50
2020/12/12 08:45:36;;;;;;;19.48;11.40;;;8.20;78.40;;;;;;5033588;28;20063;-47
2020/12/12 08:48:08;;;;;;;19.15;12.30;;;8.20;78.40;;;;;;5033443;28;20050;-45
2020/12/12 08:50:48;;;;;;;17.17;11.65;;;8.20;78.40;;;;;;5033366;28;20049;-47
2020/12/12 08:53:20;;;;;;;18.05;10.63;;;8.20;78.40;;;;;;5033350;28;20049;-43
2020/12/12 08:56:04;;;;;;;16.20;10.63;;;8.20;78.40;;;;;;5032997;28;20085;-48
2020/12/12 08:58:37;;;;;;;20.55;11.07;;;8.20;78.40;;;;;;5033263;28;20049;-47
2020/12/12 09:01:35;;;;;;;19.75;11.60;;;8.20;78.40;;;;;;5033223;28;20045;-45
2020/12/12 09:04:12;;;;;;;16.48;12.10;;;8.20;78.40;;;;;;5013431;28;20074;-47
2020/12/12 09:06:40;;;;;;;18.63;10.30;;;8.20;78.40;;;;;;5013585;28;20445;-48
2020/12/12 09:09:26;;;;;;;17.48;10.85;;;8.20;78.40;;;;;;5013327;28;20054;-47
2020/12/12 09:12:00;;;;;;;17.27;10.98;;;8.20;78.40;;;;;;5013175;28;20107;-46
2020/12/12 09:14:48;;;;;;;16.88;10.40;;;8.20;78.40;;;;;;4991994;28;20050;-47
2020/12/12 09:17:14;;;;;;;16.60;11.02;;;8.20;78.50;;;;;;4993633;28;20454;-50
2020/12/12 09:19:40;;;;;;;17.83;10.52;;;8.20;78.40;;;;;;4993511;28;20072;-45
2020/12/12 09:22:26;;;;;;;16.33;11.25;;;8.20;78.40;;;;;;4992796;28;20061;-46
2020/12/12 09:25:11;;;;;;;15.68;10.32;;;8.20;78.50;;;;;;4992776;28;20057;-45
2020/12/12 09:27:37;;;;;;;15.93;9.77;;;8.20;78.40;;;;;;4993795;28;20058;-46
2020/12/12 09:30:03;;;;;;;16.15;10.27;;;8.20;78.40;;;;;;4993143;28;20054;-48
2020/12/12 09:32:28;;;;;;;17.35;10.68;;;8.20;78.40;;;;;;4993858;28;20050;-45
2020/12/12 09:34:54;;;;;;;15.43;11.25;;;8.20;78.40;;;;;;4993487;28;20050;-46
2020/12/12 09:37:20;;;;;;;15.68;10.13;;;8.20;78.40;;;;;;4993490;28;20050;-45
2020/12/12 09:40:05;;;;;;;15.38;9.93;;;8.20;78.50;;;;;;5007339;28;20052;-42
2020/12/12 09:42:51;;;;;;;15.80;10.13;;;8.20;78.40;;;;;;4996659;28;20559;-48
2020/12/12 09:45:16;;;;;;;16.15;11.05;;;8.20;78.40;;;;;;4997152;28;20133;-45
2020/12/12 09:47:42;;;;;;;15.57;10.88;;;8.20;78.40;;;;;;4997446;28;20050;-45
2020/12/12 09:50:08;;;;;;;14.65;9.63;;;8.30;78.50;;;;;;4997369;28;20061;-41
2020/12/12 09:52:33;;;;;;;15.93;10.43;;;8.20;78.50;;;;;;4997178;28;20046;-45
2020/12/12 09:54:59;;;;;;;13.95;9.60;;;8.30;78.50;;;;;;4997177;28;20101;-47
2020/12/12 09:57:26;;;;;;;15.82;10.10;;;8.20;78.40;;;;;;4997181;28;20066;-46
2020/12/12 10:00:12;;;;;;;16.67;10.32;;;8.30;78.50;;;;;;4996180;28;20137;-46
2020/12/12 10:02:57;;;;;;;14.27;9.40;;;8.20;78.40;;;;;;5010373;28;20136;-46
2020/12/12 10:05:23;;;;;;;16.17;10.35;;;8.20;78.40;;;;;;5016710;28;20133;-45
2020/12/12 10:07:49;;;;;;;15.88;10.60;;;8.20;78.50;;;;;;5016759;28;20057;-44
2020/12/12 10:10:14;;;;;;;14.60;10.07;;;8.30;78.50;;;;;;5016788;28;20046;-44
2020/12/12 10:12:40;;;;;;;15.88;10.98;;;8.30;78.50;;;;;;5016919;28;20056;-42
2020/12/12 10:15:06;;;;;;;15.35;10.30;;;8.20;78.40;;;;;;5036045;28;20436;-45
2020/12/12 10:17:32;;;;;;;15.63;10.27;;;8.30;79.10;;;;;;5036104;28;20053;-44
2020/12/12 10:19:58;;;;;;;15.02;10.15;;;8.30;78.50;;;;;;5036007;28;20072;-43
2020/12/12 10:22:24;;;;;;;16.17;9.82;;;8.30;78.50;;;;;;5018788;28;20049;-41
2020/12/12 10:25:10;;;;;;;14.55;9.90;;;8.30;78.50;;;;;;5021501;28;20065;-42
2020/12/12 10:27:37;;;;;;;16.55;10.38;;;8.30;78.50;;;;;;5036234;28;20056;-42
2020/12/12 10:30:08;;;;;;;13.57;9.35;;;8.30;78.50;;;;;;5035953;28;20050;-42
2020/12/12 10:32:35;;;;;;;17.65;9.93;;;8.30;78.50;;;;;;5036097;28;20053;-42
2020/12/12 10:35:01;;;;;;;14.30;9.30;;;8.30;78.50;;;;;;5035904;28;20049;-42
2020/12/12 10:37:27;;;;;;;14.18;9.80;;;8.30;78.50;;;;;;5035834;28;20042;-43
2020/12/12 10:40:00;;;;;;;15.07;10.20;;;8.30;78.50;;;;;;5036000;28;20061;-46
2020/12/12 10:42:26;;;;;;;16.30;10.40;;;8.20;78.50;;;;;;5035847;28;20124;-40
2020/12/12 10:44:51;;;;;;;15.85;10.40;;;8.30;78.50;;;;;;5035849;28;20139;-43
2020/12/12 10:47:37;;;;;;;15.40;9.90;;;8.30;78.50;;;;;;5021089;28;20046;-42
2020/12/12 10:50:05;;;;;;;15.05;10.15;;;8.30;78.50;;;;;;5035472;28;20053;-41
2020/12/12 10:52:30;;;;;;;14.60;10.07;;;8.30;78.50;;;;;;5034620;28;20047;-41
2020/12/12 10:54:56;;;;;;;14.45;10.15;;;8.30;78.50;;;;;;5017975;28;20405;-40
2020/12/12 10:57:22;;;;;;;14.05;9.98;;;8.30;78.50;;;;;;5035375;28;20053;-43
2020/12/12 10:59:48;;;;;;;16.45;11.20;;;8.30;78.50;;;;;;5035218;28;20061;-43
2020/12/12 11:02:14;;;;;;;16.80;10.63;;;8.30;78.50;;;;;;5035275;28;20049;-43
2020/12/12 11:04:41;;;;;;;15.93;10.40;;;8.30;78.50;;;;;;5035465;28;20060;-45
2020/12/12 11:07:07;;;;;;;14.70;9.57;;;8.30;78.50;;;;;;5035595;28;20049;-43
2020/12/12 11:09:34;;;;;;;16.48;10.65;;;8.30;78.50;;;;;;5035227;28;20053;-43
2020/12/12 11:12:19;;;;;;;14.32;10.02;;;8.30;78.50;;;;;;5020511;28;20049;-44
2020/12/12 11:14:47;;;;;;;13.80;9.48;;;8.30;78.50;;;;;;5034921;28;20050;-43
2020/12/12 11:17:33;;;;;;;12.77;8.40;;;8.30;78.50;;;;;;5020190;28;20072;-44
2020/12/12 11:19:59;;;;;;;13.88;9.48;;;8.30;78.50;;;;;;5035275;28;20057;-46
2020/12/12 11:22:44;;;;;;;15.20;10.20;;;8.30;78.50;;;;;;5020352;28;20054;-41
2020/12/12 11:25:30;;;;;;;14.35;9.38;;;8.30;78.50;;;;;;5020341;28;20088;-40
2020/12/12 11:28:15;;;;;;;13.25;8.98;;;8.30;79.10;;;;;;5020602;28;20056;-41
2020/12/12 11:30:41;;;;;;;14.95;10.23;;;8.30;78.50;;;;;;5035126;28;20049;-42
2020/12/12 11:33:07;;;;;;;16.33;10.65;;;8.30;78.50;;;;;;5034435;28;20041;-42
2020/12/12 11:35:45;;;;;;;14.20;9.77;;;8.30;78.50;;;;;;5034655;28;20056;-42
2020/12/12 11:46:42;;;;;;;16.23;9.65;;;8.30;78.50;;;;;;5034605;28;20057;-41
2020/12/12 11:49:21;;;;;;;15.30;9.88;;;8.30;78.50;;;;;;5019876;28;20064;-42
2020/12/12 11:51:47;;;;;;;15.77;9.77;;;8.30;78.50;;;;;;5034440;28;20046;-42
2020/12/12 11:54:13;;;;;;;12.43;9.13;;;8.30;78.50;;;;;;5034220;28;20551;-40
2020/12/12 11:56:39;;;;;;;14.60;9.98;;;8.30;78.50;;;;;;5034539;28;20152;-43
2020/12/12 11:59:04;;;;;;;13.75;9.13;;;8.30;78.50;;;;;;5034104;28;20053;-40
2020/12/12 12:01:31;;;;;;;13.25;9.05;;;8.30;78.50;;;;;;5034343;28;20045;-42
2020/12/12 12:03:57;;;;;;;18.00;9.75;;;8.30;78.50;;;;;;5033866;28;20072;-43
2020/12/12 12:06:42;;;;;;;;;;;8.30;78.50;;;;;;5020102;28;20145;-41
2020/12/12 12:11:35;;;;;;;13.20;8.87;;;8.30;78.60;;;;;;5034313;28;19921;-42
2020/12/12 12:14:10;;;;;;;14.73;9.60;;;8.30;78.50;;;;;;5033426;28;20470;-44
2020/12/12 12:16:41;;;;;;;13.18;8.70;;;8.30;78.60;;;;;;5033967;28;20103;-41
2020/12/12 12:19:12;;;;;;;13.43;9.82;;;8.30;78.60;;;;;;5033449;28;20049;-42
2020/12/12 12:21:39;;;;;;;12.73;9.48;;;8.30;78.60;;;;;;5033985;28;20049;-43
2020/12/12 12:24:07;;;;;;;14.15;8.88;;;8.30;78.60;;;;;;5034076;28;20454;-44
2020/12/12 12:26:36;;;;;;;13.52;9.15;;;8.30;78.60;;;;;;5033857;28;20449;-42
2020/12/12 12:29:04;;;;;;;13.85;9.27;;;8.30;78.50;;;;;;5033855;28;20128;-43
2020/12/12 12:31:29;;;;;;;12.27;8.55;;;8.30;78.50;;;;;;5033854;28;20132;-42
2020/12/12 12:33:55;;;;;;;12.43;8.38;;;8.30;78.50;;;;;;5033217;28;20132;-42
2020/12/12 12:36:24;;;;;;;12.95;9.05;;;8.30;78.60;;;;;;5033564;28;20057;-44
2020/12/12 12:38:51;;;;;;;13.85;9.65;;;8.30;78.60;;;;;;5033641;28;20060;-42
2020/12/12 12:41:17;;;;;;;12.68;8.68;;;8.30;78.60;;;;;;5033287;28;20132;-40
2020/12/12 12:43:43;;;;;;;14.90;8.98;;;8.30;78.60;;;;;;5033644;28;20520;-43
2020/12/12 12:46:30;;;;;;;;;;;8.30;78.60;;;;;;5019414;28;20098;-42
2020/12/12 12:49:17;;;;;;;12.32;8.38;;;8.30;78.60;;;;;;4994888;28;19960;-41
2020/12/12 12:51:43;;;;;;;11.98;8.57;;;8.30;78.60;;;;;;5008412;28;20136;-40
2020/12/12 12:54:09;;;;;;;13.60;9.27;;;8.30;78.60;;;;;;5008824;28;20058;-40
2020/12/12 12:56:35;;;;;;;13.23;8.55;;;8.30;78.60;;;;;;4990540;28;20058;-40
2020/12/12 12:59:02;;;;;;;13.30;8.60;;;8.30;78.60;;;;;;5008989;28;20049;-40
2020/12/12 13:01:50;;;;;;;14.50;9.52;;;8.30;78.60;;;;;;4998454;28;20052;-42
2020/12/12 13:04:17;;;;;;;14.60;9.45;;;8.30;78.60;;;;;;5027753;28;20053;-40
2020/12/12 13:06:42;;;;;;;12.85;8.98;;;8.30;78.60;;;;;;5027707;28;20056;-41
2020/12/12 13:09:28;;;;;;;12.85;8.27;;;8.30;78.60;;;;;;5013065;28;20458;-40
2020/12/12 13:11:54;;;;;;;14.20;9.07;;;8.30;78.60;;;;;;5027951;28;20168;-40
2020/12/12 13:14:19;;;;;;;15.68;8.65;;;8.30;78.60;;;;;;5027691;28;20128;-40
2020/12/12 13:16:45;;;;;;;13.05;8.75;;;8.30;78.60;;;;;;5026922;28;20350;-40
2020/12/12 13:19:15;;;;;;;14.70;9.23;;;8.40;78.60;;;;;;5027954;28;20494;-40
2020/12/12 13:21:47;;;;;;;14.05;9.52;;;8.40;78.60;;;;;;5027506;28;20551;-40